Time;durP1;ratioP1;P1;durP2;ratioP2;P2;SDS_P1;SDS_P2;PMS_P1;PMS_P2;Temp;Humidity;BMP_temperature;BMP_pressure;BME280_temperature;BME280_humidity;BME280_pressure;Samples;Min_cycle;Max_cycle;Signal;HPM_P1;HPM_P2
2022/09/29 00:00:10;;;;;;;9.55;6.38;;;17.80;1.00;;;;;;5094119;28;20028;-45
2022/09/29 00:02:36;;;;;;;10.13;6.20;;;17.70;1.00;;;;;;5088968;28;20039;-45
2022/09/29 00:05:02;;;;;;;10.35;5.80;;;17.70;1.00;;;;;;5084498;28;20024;-45
2022/09/29 00:07:28;;;;;;;12.00;6.38;;;17.70;1.00;;;;;;5092509;28;20431;-48
2022/09/29 00:09:53;;;;;;;11.82;5.55;;;17.70;1.00;;;;;;5093693;28;20040;-46
2022/09/29 00:12:53;;;;;;;13.52;6.40;;;17.70;1.00;;;;;;5093015;28;20138;-45
2022/09/29 00:15:18;;;;;;;13.00;5.75;;;17.70;1.00;;;;;;5084905;28;20019;-45
2022/09/29 00:17:44;;;;;;;9.52;5.18;;;17.60;1.00;;;;;;5092226;28;20024;-46
2022/09/29 00:20:10;;;;;;;11.60;6.75;;;17.70;1.00;;;;;;5093766;28;20031;-45
2022/09/29 00:22:35;;;;;;;12.02;6.57;;;17.70;1.00;;;;;;5088830;28;20501;-45
2022/09/29 00:25:01;;;;;;;11.90;7.55;;;17.70;1.00;;;;;;5093757;28;20020;-46
2022/09/29 00:27:26;;;;;;;11.30;7.13;;;17.70;1.00;;;;;;5092502;28;20027;-45
2022/09/29 00:29:52;;;;;;;14.18;7.15;;;17.60;1.00;;;;;;5077833;28;20028;-45
2022/09/29 00:32:17;;;;;;;11.98;6.57;;;17.70;1.00;;;;;;5093386;28;20457;-45
2022/09/29 00:34:43;;;;;;;13.77;7.65;;;17.70;1.00;;;;;;5092551;28;20126;-45
2022/09/29 00:37:09;;;;;;;10.95;7.47;;;17.60;1.00;;;;;;5093351;28;20393;-50
2022/09/29 00:39:34;;;;;;;14.50;7.78;;;17.60;1.00;;;;;;5089347;28;20059;-48
2022/09/29 00:42:00;;;;;;;15.70;7.70;;;17.60;1.00;;;;;;5093066;28;20016;-48
2022/09/29 00:44:47;;;;;;;10.60;7.15;;;17.60;1.00;;;;;;5091879;28;20044;-46
2022/09/29 00:47:16;;;;;;;11.98;7.35;;;17.60;1.00;;;;;;5091748;28;20482;-45
2022/09/29 00:49:51;;;;;;;15.88;7.82;;;17.60;1.00;;;;;;5092152;28;20497;-45
2022/09/29 00:52:20;;;;;;;11.43;7.50;;;17.60;1.00;;;;;;5093256;28;20091;-45
2022/09/29 00:54:51;;;;;;;11.75;7.88;;;17.50;1.00;;;;;;5083624;28;20177;-45
2022/09/29 00:57:20;;;;;;;10.57;8.07;;;17.50;1.00;;;;;;5092795;28;20478;-47
2022/09/29 01:00:00;;;;;;;14.75;7.82;;;17.50;1.00;;;;;;5089531;28;20099;-45
2022/09/29 01:02:28;;;;;;;12.02;8.65;;;17.50;1.00;;;;;;5092774;28;20016;-44
2022/09/29 01:04:54;;;;;;;10.18;7.85;;;17.50;1.00;;;;;;5091432;28;20115;-46
2022/09/29 01:07:22;;;;;;;12.35;7.85;;;17.50;1.00;;;;;;5092133;28;20024;-46
2022/09/29 01:09:50;;;;;;;12.27;8.55;;;17.50;1.00;;;;;;5087501;28;20093;-45
2022/09/29 01:12:17;;;;;;;10.93;7.90;;;17.40;1.00;;;;;;5091968;28;20024;-48
2022/09/29 01:14:43;;;;;;;13.07;7.95;;;17.40;1.00;;;;;;5087159;28;20033;-48
2022/09/29 01:17:09;;;;;;;9.63;7.30;;;17.40;1.00;;;;;;5084874;28;20481;-45
2022/09/29 01:19:52;;;;;;;12.10;7.60;;;17.40;1.00;;;;;;5091489;28;20016;-46
2022/09/29 01:22:56;;;;;;;10.20;7.18;;;17.40;1.00;;;;;;5086278;28;20032;-45
2022/09/29 01:25:59;;;;;;;16.02;8.15;;;17.40;1.00;;;;;;5069029;28;20478;-45
2022/09/29 01:28:36;;;;;;;13.32;7.38;;;17.30;1.00;;;;;;5068171;28;20115;-45
2022/09/29 01:31:11;;;;;;;12.93;7.97;;;17.30;1.00;;;;;;5074219;28;20461;-45
2022/09/29 01:34:08;;;;;;;10.48;7.47;;;17.30;1.00;;;;;;5081190;28;20024;-46
2022/09/29 01:36:57;;;;;;;12.98;8.35;;;17.30;1.00;;;;;;5070518;28;20146;-45
2022/09/29 01:39:41;;;;;;;14.00;8.20;;;17.20;1.00;;;;;;5088789;28;20434;-47
2022/09/29 01:42:18;;;;;;;11.98;8.35;;;17.20;1.00;;;;;;5091474;28;20031;-45
2022/09/29 01:44:54;;;;;;;10.32;7.65;;;17.20;1.00;;;;;;5078283;28;20058;-45
2022/09/29 01:47:43;;;;;;;12.70;8.05;;;17.20;1.00;;;;;;5091335;28;20028;-45
2022/09/29 01:50:21;;;;;;;13.70;8.27;;;17.20;1.00;;;;;;5082243;28;20409;-47
2022/09/29 01:52:55;;;;;;;13.52;8.48;;;17.20;1.00;;;;;;5085093;28;20047;-47
2022/09/29 01:55:24;;;;;;;12.68;8.20;;;17.20;1.00;;;;;;5079012;28;20038;-47
2022/09/29 01:58:05;;;;;;;12.07;7.80;;;17.20;1.00;;;;;;5077299;28;20101;-45
2022/09/29 02:00:37;;;;;;;14.30;8.38;;;17.20;1.00;;;;;;5071511;28;20480;-49
2022/09/29 02:03:09;;;;;;;12.95;8.25;;;17.20;1.00;;;;;;5073511;28;20381;-47
2022/09/29 02:05:41;;;;;;;13.40;8.32;;;17.20;1.00;;;;;;5088859;28;20039;-50
2022/09/29 02:08:11;;;;;;;11.20;7.50;;;17.20;1.00;;;;;;5091782;28;20020;-49
2022/09/29 02:10:45;;;;;;;10.20;7.50;;;17.20;1.00;;;;;;5089422;28;20132;-50
2022/09/29 02:13:13;;;;;;;10.18;7.35;;;17.10;1.00;;;;;;5089530;28;20073;-50
2022/09/29 02:15:45;;;;;;;11.82;7.15;;;17.10;1.00;;;;;;5089678;28;20032;-51
2022/09/29 02:18:20;;;;;;;11.55;7.72;;;17.10;1.00;;;;;;5091774;28;20020;-48
2022/09/29 02:20:47;;;;;;;17.00;8.80;;;17.10;1.00;;;;;;5088359;28;20213;-46
2022/09/29 02:23:13;;;;;;;10.02;7.80;;;17.10;1.00;;;;;;5090417;28;20358;-46
2022/09/29 02:25:39;;;;;;;11.10;7.38;;;17.10;1.00;;;;;;5088199;28;20038;-50
2022/09/29 02:28:06;;;;;;;13.27;7.32;;;17.10;1.00;;;;;;5091766;28;20094;-49
2022/09/29 02:30:33;;;;;;;11.55;6.97;;;17.10;1.00;;;;;;5072247;28;20095;-48
2022/09/29 02:32:59;;;;;;;12.32;8.10;;;17.10;1.00;;;;;;5091928;28;20020;-44
2022/09/29 02:35:47;;;;;;;15.60;7.88;;;17.10;1.00;;;;;;5090571;28;20043;-43
2022/09/29 02:38:41;;;;;;;15.18;7.57;;;17.10;1.00;;;;;;5081416;28;20055;-47
2022/09/29 02:41:27;;;;;;;12.93;8.27;;;17.10;1.00;;;;;;5090903;28;20028;-45
2022/09/29 02:53:36;;;;;;;10.20;7.40;;;17.00;1.00;;;;;;5100790;28;20123;-46
2022/09/29 02:56:32;;;;;;;10.57;7.18;;;16.90;1.00;;;;;;5113861;28;20043;-45
2022/09/29 02:59:09;;;;;;;11.02;7.30;;;17.00;1.00;;;;;;5098144;28;20040;-45
2022/09/29 03:01:48;;;;;;;11.00;6.65;;;17.00;1.00;;;;;;5111604;28;20070;-45
2022/09/29 03:04:13;;;;;;;12.52;7.45;;;17.00;1.00;;;;;;5106270;28;20088;-45
2022/09/29 03:06:39;;;;;;;7.60;6.85;;;17.00;1.00;;;;;;5112571;28;20040;-46
2022/09/29 03:09:04;;;;;;;14.52;8.52;;;17.00;1.00;;;;;;5112629;28;20040;-45
2022/09/29 03:11:30;;;;;;;11.05;7.43;;;17.00;1.00;;;;;;5112559;28;20123;-45
2022/09/29 03:13:56;;;;;;;12.32;7.40;;;17.00;1.00;;;;;;5112980;28;20031;-45
2022/09/29 03:16:22;;;;;;;11.07;6.85;;;17.00;1.00;;;;;;5112946;28;20118;-45
2022/09/29 03:18:48;;;;;;;11.20;7.10;;;17.00;1.00;;;;;;5096008;28;20114;-45
2022/09/29 03:21:13;;;;;;;11.38;7.13;;;17.00;1.00;;;;;;5094884;28;20024;-45
2022/09/29 03:23:39;;;;;;;10.38;6.70;;;17.00;1.00;;;;;;5093679;28;20020;-45
2022/09/29 03:26:04;;;;;;;11.30;6.65;;;16.90;1.00;;;;;;5093552;28;20104;-47
2022/09/29 03:28:30;;;;;;;13.38;6.68;;;16.90;1.00;;;;;;5093596;28;20390;-46
2022/09/29 03:31:03;;;;;;;8.95;6.70;;;16.90;1.00;;;;;;5092043;28;20558;-45
2022/09/29 03:33:29;;;;;;;10.80;7.05;;;16.90;1.00;;;;;;5092147;28;20019;-46
2022/09/29 03:35:54;;;;;;;11.88;6.82;;;16.90;1.00;;;;;;5094111;28;20024;-45
2022/09/29 03:38:20;;;;;;;14.27;7.03;;;16.90;1.00;;;;;;5093634;28;20049;-45
2022/09/29 03:40:45;;;;;;;11.32;7.82;;;16.80;1.00;;;;;;5094754;28;20446;-45
2022/09/29 03:43:11;;;;;;;11.77;6.75;;;16.80;1.00;;;;;;5093595;28;20024;-45
2022/09/29 03:45:37;;;;;;;9.27;6.88;;;16.90;1.00;;;;;;5093839;28;20089;-45
2022/09/29 03:48:02;;;;;;;12.95;7.32;;;16.90;1.00;;;;;;5088690;28;20359;-45
2022/09/29 03:50:28;;;;;;;12.63;7.60;;;16.90;1.00;;;;;;5081896;28;20041;-45
2022/09/29 03:52:53;;;;;;;8.95;6.55;;;16.80;1.00;;;;;;5091027;28;20028;-47
2022/09/29 03:55:19;;;;;;;14.07;7.75;;;16.80;1.00;;;;;;5090295;28;20191;-46
2022/09/29 03:57:45;;;;;;;9.15;6.50;;;16.80;1.00;;;;;;5082505;28;20519;-45
2022/09/29 04:00:11;;;;;;;13.05;8.27;;;16.80;1.00;;;;;;5094380;28;20035;-45
2022/09/29 04:02:36;;;;;;;13.57;7.28;;;16.80;1.00;;;;;;5086269;28;20440;-46
2022/09/29 04:05:02;;;;;;;10.50;6.80;;;16.80;1.00;;;;;;5092438;28;20054;-45
2022/09/29 04:07:28;;;;;;;13.77;8.05;;;16.80;1.00;;;;;;5092680;28;20100;-46
2022/09/29 04:09:53;;;;;;;10.43;7.07;;;16.80;1.00;;;;;;5093918;28;20036;-45
2022/09/29 04:12:19;;;;;;;12.38;7.68;;;16.80;1.00;;;;;;5092825;28;20066;-45
2022/09/29 04:14:45;;;;;;;11.00;7.25;;;16.80;1.00;;;;;;5093744;28;20089;-45
2022/09/29 04:17:10;;;;;;;9.07;7.45;;;16.80;1.00;;;;;;5093106;28;20032;-46
2022/09/29 04:19:36;;;;;;;12.07;7.75;;;16.80;1.00;;;;;;5093909;28;20100;-46
2022/09/29 04:22:01;;;;;;;14.88;7.43;;;16.80;1.00;;;;;;5092380;28;20473;-45
2022/09/29 04:24:27;;;;;;;11.20;7.78;;;16.80;1.00;;;;;;5093430;28;20149;-47
2022/09/29 04:26:52;;;;;;;11.23;7.57;;;16.90;1.00;;;;;;5092749;28;20495;-46
2022/09/29 04:32:40;;;;;;;15.52;7.22;;;17.00;1.00;;;;;;5083783;28;20093;-45
2022/09/29 04:35:06;;;;;;;10.75;7.10;;;16.90;1.00;;;;;;5072444;28;20036;-45
2022/09/29 04:37:32;;;;;;;12.32;7.50;;;17.00;1.00;;;;;;5089192;28;20107;-48
2022/09/29 04:39:57;;;;;;;8.90;7.15;;;16.90;1.00;;;;;;5085019;28;20095;-46
2022/09/29 04:42:23;;;;;;;12.27;7.90;;;16.80;1.00;;;;;;5076752;28;20060;-48
2022/09/29 04:44:48;;;;;;;9.07;7.18;;;16.80;1.00;;;;;;5086518;28;20062;-47
2022/09/29 04:47:14;;;;;;;9.95;7.03;;;16.80;1.00;;;;;;5093110;28;20472;-47
2022/09/29 04:49:40;;;;;;;11.93;6.95;;;16.80;1.00;;;;;;5090857;28;20043;-47
2022/09/29 04:52:05;;;;;;;10.15;7.03;;;16.80;1.00;;;;;;5076921;28;20111;-51
2022/09/29 04:54:32;;;;;;;8.20;6.90;;;16.80;1.00;;;;;;5087556;28;20020;-47
2022/09/29 04:56:58;;;;;;;10.50;7.18;;;16.80;1.00;;;;;;5092932;28;20090;-49
2022/09/29 04:59:24;;;;;;;11.10;6.30;;;16.90;1.00;;;;;;5102846;28;20489;-50
2022/09/29 05:01:49;;;;;;;11.93;6.88;;;16.90;1.00;;;;;;5092921;28;20063;-51
2022/09/29 05:04:15;;;;;;;10.43;7.22;;;16.90;1.00;;;;;;5091050;28;20028;-47
2022/09/29 05:06:40;;;;;;;11.60;6.72;;;16.90;1.00;;;;;;5092863;28;20024;-49
2022/09/29 05:09:06;;;;;;;10.48;6.90;;;16.90;1.00;;;;;;5091360;28;20032;-46
2022/09/29 05:11:32;;;;;;;9.43;6.18;;;16.90;1.00;;;;;;5082627;28;20044;-49
2022/09/29 05:13:58;;;;;;;10.70;6.70;;;16.90;1.00;;;;;;5084994;28;20028;-49
2022/09/29 05:16:24;;;;;;;11.52;6.68;;;16.90;1.00;;;;;;5092232;28;20028;-51
2022/09/29 05:18:50;;;;;;;12.23;7.28;;;16.70;1.00;;;;;;5091525;28;20028;-47
2022/09/29 05:21:16;;;;;;;9.57;7.05;;;16.70;1.00;;;;;;5090885;28;20034;-49
2022/09/29 05:23:41;;;;;;;9.88;6.82;;;16.70;1.00;;;;;;5086853;28;20021;-48
2022/09/29 05:26:09;;;;;;;14.48;7.22;;;16.70;1.00;;;;;;5089440;28;20111;-52
2022/09/29 05:28:35;;;;;;;9.35;6.72;;;16.70;1.00;;;;;;5087400;28;20018;-46
2022/09/29 05:31:03;;;;;;;11.77;6.90;;;16.70;1.00;;;;;;5088569;28;20422;-49
2022/09/29 05:33:29;;;;;;;10.05;7.03;;;16.70;1.00;;;;;;5091196;28;20027;-48
2022/09/29 05:35:54;;;;;;;10.80;7.38;;;16.80;1.00;;;;;;5092243;28;20024;-47
2022/09/29 05:38:21;;;;;;;10.68;7.32;;;16.70;1.00;;;;;;5085671;28;20524;-45
2022/09/29 05:40:47;;;;;;;11.48;6.70;;;16.80;1.00;;;;;;5084815;28;20032;-46
2022/09/29 05:43:13;;;;;;;14.48;7.18;;;16.70;1.00;;;;;;5091448;28;20024;-45
2022/09/29 05:45:38;;;;;;;13.45;8.45;;;16.70;1.00;;;;;;5088583;28;20201;-48
2022/09/29 05:48:04;;;;;;;9.90;7.43;;;16.80;1.00;;;;;;5092194;28;20035;-47
2022/09/29 05:50:31;;;;;;;11.60;7.70;;;16.70;1.00;;;;;;5085312;28;20130;-47
2022/09/29 05:53:02;;;;;;;11.10;8.15;;;16.70;1.00;;;;;;5091543;28;20028;-44
2022/09/29 05:55:28;;;;;;;11.05;8.43;;;16.80;1.00;;;;;;5086279;28;20036;-45
2022/09/29 05:57:53;;;;;;;13.77;7.93;;;16.90;1.00;;;;;;5091776;28;20051;-45
2022/09/29 06:00:19;;;;;;;13.60;8.50;;;16.90;1.00;;;;;;5091186;28;20496;-46
2022/09/29 06:02:45;;;;;;;14.82;8.50;;;16.90;1.00;;;;;;5091808;28;20026;-46
2022/09/29 06:05:10;;;;;;;11.43;8.60;;;16.90;1.00;;;;;;5084518;28;20504;-45
2022/09/29 06:07:36;;;;;;;17.58;9.57;;;16.90;1.00;;;;;;5091181;28;20028;-46
2022/09/29 06:10:01;;;;;;;14.98;10.45;;;16.90;1.00;;;;;;5090673;28;20111;-48
2022/09/29 06:12:27;;;;;;;14.18;9.45;;;17.00;1.00;;;;;;5091714;28;20422;-45
2022/09/29 06:14:53;;;;;;;16.02;10.27;;;17.00;1.00;;;;;;5090677;28;20028;-48
2022/09/29 06:17:18;;;;;;;14.93;10.55;;;17.10;1.00;;;;;;5091715;28;20024;-47
2022/09/29 06:19:44;;;;;;;14.35;10.32;;;17.20;1.00;;;;;;5090423;28;20517;-46
2022/09/29 06:22:09;;;;;;;13.18;10.48;;;17.20;1.00;;;;;;5085586;28;20016;-49
2022/09/29 06:24:35;;;;;;;17.52;11.07;;;17.30;1.00;;;;;;5082487;28;20024;-46
2022/09/29 06:27:00;;;;;;;21.08;11.02;;;17.30;1.00;;;;;;5091514;28;20089;-46
2022/09/29 06:29:26;;;;;;;16.95;10.63;;;17.30;1.00;;;;;;5094002;28;20020;-44
2022/09/29 06:31:53;;;;;;;17.88;12.07;;;17.40;1.00;;;;;;5083544;28;20028;-51
2022/09/29 06:34:18;;;;;;;14.85;10.30;;;17.40;1.00;;;;;;5090295;28;20546;-61
2022/09/29 06:39:28;;;;;;;;;;;17.50;1.00;;;;;;5094191;28;20042;-45
2022/09/29 06:41:55;;;;;;;16.80;10.98;;;17.50;1.00;;;;;;5093686;28;19908;-49
2022/09/29 06:44:28;;;;;;;17.52;11.35;;;17.60;1.00;;;;;;5094432;28;20052;-48
2022/09/29 06:46:55;;;;;;;14.33;11.03;;;17.70;1.00;;;;;;5095558;28;20028;-47
2022/09/29 06:49:20;;;;;;;15.07;11.85;;;17.70;1.00;;;;;;5094266;28;20459;-46
2022/09/29 06:51:46;;;;;;;16.08;11.25;;;17.70;1.00;;;;;;5095380;28;20120;-46
2022/09/29 06:54:13;;;;;;;14.77;11.50;;;17.80;1.00;;;;;;5091639;28;20024;-49
2022/09/29 06:56:40;;;;;;;18.08;11.82;;;17.80;1.00;;;;;;5084464;28;20058;-43
2022/09/29 06:59:06;;;;;;;15.38;12.00;;;17.90;1.00;;;;;;5092300;28;20032;-49
2022/09/29 07:01:31;;;;;;;12.85;11.50;;;17.90;1.00;;;;;;5094323;28;20020;-49
2022/09/29 07:03:59;;;;;;;11.88;10.27;;;17.80;1.00;;;;;;5092189;28;20129;-50
2022/09/29 07:06:25;;;;;;;15.23;11.57;;;17.80;1.00;;;;;;5094483;28;20012;-46
2022/09/29 07:09:00;;;;;;;19.85;10.95;;;17.90;1.00;;;;;;5094122;28;20034;-50
2022/09/29 07:11:26;;;;;;;12.48;9.15;;;18.00;1.00;;;;;;5094826;28;20032;-51
2022/09/29 07:13:53;;;;;;;13.77;9.30;;;17.90;1.00;;;;;;5082868;28;20052;-44
2022/09/29 07:16:22;;;;;;;16.52;10.23;;;17.90;1.00;;;;;;5092511;28;20111;-44
2022/09/29 07:18:48;;;;;;;13.02;9.20;;;17.90;1.00;;;;;;5091726;28;20027;-45
2022/09/29 07:21:18;;;;;;;12.48;9.05;;;17.90;1.00;;;;;;5093166;28;20036;-43
2022/09/29 07:23:45;;;;;;;13.73;9.38;;;17.90;1.00;;;;;;5080398;28;20032;-48
2022/09/29 07:26:12;;;;;;;14.98;10.70;;;17.90;1.00;;;;;;5086220;28;20330;-43
2022/09/29 07:28:38;;;;;;;14.85;9.98;;;18.00;1.00;;;;;;5093040;28;20024;-42
2022/09/29 07:31:07;;;;;;;12.38;9.18;;;18.00;1.00;;;;;;5094713;28;20047;-44
2022/09/29 07:33:33;;;;;;;14.98;9.75;;;18.00;1.00;;;;;;5094557;28;20016;-46
2022/09/29 07:35:59;;;;;;;13.10;9.80;;;18.00;1.00;;;;;;5094899;28;20035;-50
2022/09/29 07:38:29;;;;;;;12.43;9.82;;;18.00;1.00;;;;;;5093966;28;20021;-48
2022/09/29 07:41:01;;;;;;;12.60;9.07;;;18.10;1.00;;;;;;5094731;28;20122;-50
2022/09/29 07:43:26;;;;;;;15.30;10.10;;;18.10;1.00;;;;;;5094737;28;20081;-42
2022/09/29 07:45:52;;;;;;;16.05;10.95;;;18.00;1.00;;;;;;5093522;28;20040;-44
2022/09/29 07:48:18;;;;;;;14.10;11.05;;;18.00;1.00;;;;;;5093556;28;20039;-45
2022/09/29 07:50:45;;;;;;;15.82;13.13;;;18.00;1.00;;;;;;5093297;28;20036;-47
2022/09/29 07:53:11;;;;;;;16.55;11.77;;;18.00;1.00;;;;;;5093089;28;20043;-43
2022/09/29 07:55:37;;;;;;;14.55;11.43;;;18.10;1.00;;;;;;5093483;28;20351;-45
2022/09/29 07:58:03;;;;;;;16.02;10.45;;;18.10;1.00;;;;;;5093335;28;20477;-47
2022/09/29 08:00:30;;;;;;;18.20;11.13;;;18.10;1.00;;;;;;5093484;28;20024;-44
2022/09/29 08:03:05;;;;;;;14.52;10.43;;;17.90;1.00;;;;;;5093103;28;20020;-45
2022/09/29 08:05:32;;;;;;;16.73;12.05;;;18.00;1.00;;;;;;5080573;28;20611;-44
2022/09/29 08:07:59;;;;;;;19.58;11.80;;;18.00;1.00;;;;;;5091189;28;20020;-46
2022/09/29 08:10:26;;;;;;;15.73;11.45;;;18.00;1.00;;;;;;5092842;28;20032;-45
2022/09/29 08:12:52;;;;;;;16.38;11.50;;;18.00;1.00;;;;;;5092776;28;20028;-48
2022/09/29 08:15:19;;;;;;;14.70;10.88;;;18.00;1.00;;;;;;5093114;28;20464;-45
2022/09/29 08:17:44;;;;;;;13.90;10.38;;;18.10;1.00;;;;;;5092987;28;20028;-46
2022/09/29 08:20:10;;;;;;;16.10;11.60;;;18.00;1.00;;;;;;5092600;28;20390;-45
2022/09/29 08:22:35;;;;;;;19.08;11.77;;;18.00;1.00;;;;;;5092693;28;20027;-47
2022/09/29 08:25:01;;;;;;;17.40;12.48;;;18.00;1.00;;;;;;5092692;28;20380;-50
2022/09/29 08:27:28;;;;;;;14.45;11.80;;;18.00;1.00;;;;;;5092775;28;20024;-46
2022/09/29 08:29:54;;;;;;;15.80;11.07;;;18.20;1.00;;;;;;5092284;28;20036;-46
2022/09/29 08:32:20;;;;;;;15.15;11.68;;;18.40;1.00;;;;;;5092291;28;20020;-48
2022/09/29 08:34:46;;;;;;;15.40;11.20;;;18.30;1.00;;;;;;5079840;28;20093;-45
2022/09/29 08:37:11;;;;;;;15.23;10.73;;;18.40;1.00;;;;;;5089496;28;20103;-44
2022/09/29 08:39:37;;;;;;;18.17;11.93;;;18.40;1.00;;;;;;5078330;28;20374;-48
2022/09/29 08:42:53;;;;;;;19.77;12.02;;;18.40;1.00;;;;;;5092156;28;20022;-44
2022/09/29 08:45:36;;;;;;;14.60;12.93;;;18.40;1.00;;;;;;4997464;28;1507615;-43
2022/09/29 08:48:10;;;;;;;20.33;13.57;;;18.50;1.00;;;;;;5081477;28;20042;-45
2022/09/29 08:50:47;;;;;;;17.38;12.23;;;18.80;1.00;;;;;;5092301;28;20083;-46
2022/09/29 08:53:20;;;;;;;16.70;11.60;;;18.90;1.00;;;;;;5093106;28;20070;-49
2022/09/29 08:55:49;;;;;;;16.50;11.88;;;19.00;1.00;;;;;;5092619;28;20346;-46
2022/09/29 08:58:16;;;;;;;18.80;12.98;;;19.10;1.00;;;;;;5093276;28;20382;-46
2022/09/29 09:00:50;;;;;;;15.68;12.80;;;19.20;1.00;;;;;;5092787;28;20020;-46
2022/09/29 09:03:39;;;;;;;17.55;12.43;;;19.30;1.00;;;;;;5092569;28;20079;-49
2022/09/29 09:06:22;;;;;;;19.33;12.32;;;19.40;1.00;;;;;;5088533;28;20040;-49
2022/09/29 09:09:16;;;;;;;15.48;11.70;;;19.30;1.00;;;;;;5092837;28;20039;-46
2022/09/29 09:11:59;;;;;;;17.65;11.23;;;19.70;1.00;;;;;;5079437;28;20040;-48
2022/09/29 09:14:48;;;;;;;18.80;13.55;;;19.70;1.00;;;;;;5092407;28;20028;-47
2022/09/29 09:17:29;;;;;;;18.67;13.98;;;19.80;1.00;;;;;;5093157;28;20047;-45
2022/09/29 09:20:05;;;;;;;13.00;11.65;;;19.80;1.00;;;;;;5093702;28;20040;-47
2022/09/29 09:22:56;;;;;;;13.45;12.02;;;19.70;1.00;;;;;;5092992;28;20308;-47
2022/09/29 09:25:37;;;;;;;13.38;11.98;;;19.60;1.00;;;;;;5080156;28;20035;-49
2022/09/29 09:28:26;;;;;;;17.80;13.00;;;19.40;1.00;;;;;;5092130;28;20039;-44
2022/09/29 09:30:56;;;;;;;14.43;12.23;;;19.50;1.00;;;;;;5092701;28;20464;-47
2022/09/29 09:33:46;;;;;;;15.60;12.30;;;19.40;1.00;;;;;;5092406;28;20117;-44
2022/09/29 09:36:18;;;;;;;14.00;11.98;;;19.30;1.00;;;;;;5090821;28;20055;-51
2022/09/29 09:38:47;;;;;;;16.42;11.10;;;19.20;1.00;;;;;;5092102;28;20012;-55
2022/09/29 09:41:17;;;;;;;15.27;10.63;;;19.10;1.00;;;;;;5092201;28;20024;-52
2022/09/29 09:43:50;;;;;;;17.50;11.65;;;19.20;1.00;;;;;;5092325;28;20031;-47
2022/09/29 09:46:16;;;;;;;16.13;12.63;;;19.20;1.00;;;;;;5089609;28;20040;-47
2022/09/29 09:48:48;;;;;;;16.15;11.25;;;19.20;1.00;;;;;;5081305;28;20025;-48
2022/09/29 09:51:23;;;;;;;14.40;11.05;;;19.10;1.00;;;;;;5089275;28;20524;-45
2022/09/29 09:53:51;;;;;;;16.33;11.88;;;19.20;1.00;;;;;;5077444;28;20350;-47
2022/09/29 09:56:39;;;;;;;16.63;12.90;;;19.20;1.00;;;;;;5091848;28;20036;-47
2022/09/29 09:59:18;;;;;;;17.75;12.05;;;19.20;1.00;;;;;;5071981;28;20110;-45
2022/09/29 10:01:44;;;;;;;19.10;11.52;;;19.20;1.00;;;;;;5076416;28;20028;-45
2022/09/29 10:04:13;;;;;;;15.98;12.98;;;19.20;1.00;;;;;;5080310;28;20024;-43
2022/09/29 10:06:39;;;;;;;15.75;12.70;;;19.10;1.00;;;;;;5091811;28;20032;-45
2022/09/29 10:09:05;;;;;;;20.10;12.98;;;19.10;1.00;;;;;;5091704;28;20077;-47
2022/09/29 10:11:31;;;;;;;18.67;13.65;;;19.10;1.00;;;;;;5081160;28;20486;-46
2022/09/29 10:14:08;;;;;;;18.98;12.18;;;18.90;1.00;;;;;;5076483;28;20028;-48
2022/09/29 10:16:45;;;;;;;19.30;14.52;;;18.90;1.00;;;;;;5091403;28;20036;-46
2022/09/29 10:19:10;;;;;;;15.43;13.00;;;18.90;1.00;;;;;;5091026;28;20103;-43
2022/09/29 10:21:41;;;;;;;19.27;12.55;;;18.90;1.00;;;;;;5091385;28;20104;-43
2022/09/29 10:24:28;;;;;;;16.02;12.88;;;18.90;1.00;;;;;;5091146;28;20028;-41
2022/09/29 10:26:57;;;;;;;18.95;15.07;;;19.00;1.00;;;;;;5091002;28;20072;-42
2022/09/29 10:29:43;;;;;;;20.58;14.07;;;19.20;1.00;;;;;;5089411;28;20362;-48
2022/09/29 10:32:14;;;;;;;20.05;14.77;;;19.00;1.00;;;;;;5091164;28;20032;-48
2022/09/29 10:34:42;;;;;;;16.42;13.75;;;19.00;1.00;;;;;;5090860;28;20059;-48
2022/09/29 10:37:34;;;;;;;19.58;13.77;;;19.00;1.00;;;;;;5091026;28;20028;-46
2022/09/29 10:40:11;;;;;;;16.05;13.45;;;19.00;1.00;;;;;;5090382;28;20532;-45
2022/09/29 10:42:44;;;;;;;16.52;12.52;;;18.80;1.00;;;;;;5090917;28;20445;-48
2022/09/29 10:45:20;;;;;;;21.38;15.40;;;18.90;1.00;;;;;;5090949;28;20041;-50
2022/09/29 10:48:05;;;;;;;18.48;14.85;;;18.90;1.00;;;;;;5091088;28;20028;-50
2022/09/29 10:50:35;;;;;;;16.90;14.48;;;18.80;1.00;;;;;;5090470;28;20048;-44
2022/09/29 10:53:06;;;;;;;19.13;15.23;;;18.70;1.00;;;;;;5090910;28;20024;-45
2022/09/29 10:55:46;;;;;;;21.08;14.40;;;18.70;1.00;;;;;;5090836;28;20481;-41
2022/09/29 10:58:41;;;;;;;19.20;15.23;;;18.70;1.00;;;;;;5089684;28;20012;-44
2022/09/29 11:01:15;;;;;;;16.90;14.32;;;18.70;1.00;;;;;;5090649;28;20031;-44
2022/09/29 11:03:51;;;;;;;17.77;13.35;;;18.80;1.00;;;;;;5088999;28;20367;-42
2022/09/29 11:06:25;;;;;;;27.23;13.65;;;18.80;1.00;;;;;;5076393;28;20076;-42
2022/09/29 11:09:03;;;;;;;22.73;17.33;;;18.70;1.00;;;;;;5087317;28;20496;-42
2022/09/29 11:11:35;;;;;;;33.42;19.92;;;18.30;22.30;;;;;;5075179;28;20398;-40
2022/09/29 11:14:01;;;;;;;29.25;22.42;;;18.30;1.00;;;;;;5088480;28;20028;-40
2022/09/29 11:16:32;;;;;;;30.02;21.25;;;18.30;1.00;;;;;;5092221;28;20059;-41
2022/09/29 11:19:06;;;;;;;27.58;20.30;;;18.60;1.00;;;;;;5093353;28;20024;-41
2022/09/29 11:21:50;;;;;;;26.63;20.15;;;18.70;1.00;;;;;;5094412;28;20448;-43
2022/09/29 11:24:21;;;;;;;25.70;19.45;;;18.70;6.00;;;;;;5093046;28;20021;-40
2022/09/29 11:26:50;;;;;;;17.70;15.77;;;18.70;1.00;;;;;;5093634;28;20061;-42
2022/09/29 11:29:49;;;;;;;23.27;18.48;;;18.80;1.00;;;;;;5088898;28;20047;-46
2022/09/29 11:32:48;;;;;;;33.83;21.20;;;18.90;1.00;;;;;;5077120;28;20047;-42
2022/09/29 11:35:16;;;;;;;20.20;17.55;;;18.90;1.00;;;;;;5086096;28;20065;-42
2022/09/29 11:37:52;;;;;;;23.48;18.50;;;19.00;1.00;;;;;;5090073;28;20480;-42
2022/09/29 11:40:21;;;;;;;20.70;17.27;;;19.20;1.00;;;;;;5085570;28;20028;-41
2022/09/29 11:43:08;;;;;;;20.65;17.08;;;19.60;1.00;;;;;;5091495;28;20560;-41
2022/09/29 11:45:39;;;;;;;20.55;17.17;;;19.90;1.00;;;;;;5091729;28;20479;-40
2022/09/29 11:48:25;;;;;;;22.02;16.65;;;20.00;1.00;;;;;;5093596;28;20036;-41
2022/09/29 11:51:05;;;;;;;20.08;16.33;;;19.80;1.00;;;;;;5079219;28;20489;-41
2022/09/29 11:53:30;;;;;;;20.13;17.40;;;19.90;1.00;;;;;;5091359;28;20118;-41
2022/09/29 11:56:21;;;;;;;22.73;17.98;;;20.00;1.00;;;;;;5079029;28;20527;-41
2022/09/29 11:59:24;;;;;;;23.92;17.83;;;20.10;1.00;;;;;;5092576;28;20057;-44
2022/09/29 12:02:08;;;;;;;20.63;18.38;;;20.10;1.00;;;;;;5089838;28;20047;-42
2022/09/29 12:04:39;;;;;;;23.48;18.02;;;20.10;1.00;;;;;;5088196;28;20474;-56
2022/09/29 12:07:57;;;;;;;20.77;17.42;;;20.40;1.00;;;;;;5080528;28;20082;-47
2022/09/29 12:10:42;;;;;;;22.08;16.65;;;20.60;1.00;;;;;;5038632;28;20049;-51
2022/09/29 12:13:42;;;;;;;21.08;18.10;;;20.70;1.00;;;;;;5075104;28;20024;-47
2022/09/29 12:16:14;;;;;;;22.27;18.08;;;20.90;1.00;;;;;;5089288;28;20447;-50
2022/09/29 12:18:45;;;;;;;24.25;18.08;;;21.10;1.00;;;;;;5093490;28;20462;-46
2022/09/29 12:21:14;;;;;;;20.70;17.80;;;21.00;1.00;;;;;;5079960;28;20028;-46
2022/09/29 12:23:44;;;;;;;22.60;18.17;;;21.30;1.00;;;;;;5078782;28;20027;-48
2022/09/29 12:26:20;;;;;;;24.02;18.63;;;21.30;1.00;;;;;;5085199;28;20029;-44
2022/09/29 12:29:10;;;;;;;23.48;18.80;;;21.70;1.00;;;;;;5092463;28;20035;-41
2022/09/29 12:31:45;;;;;;;18.23;16.52;;;21.70;1.00;;;;;;5091774;28;20486;-42
2022/09/29 12:34:19;;;;;;;23.63;18.20;;;21.80;1.00;;;;;;5092037;28;20024;-41
2022/09/29 12:37:04;;;;;;;22.15;19.10;;;21.90;1.00;;;;;;5092849;28;20060;-41
2022/09/29 12:39:33;;;;;;;27.27;18.83;;;21.70;1.00;;;;;;5091859;28;20457;-43
2022/09/29 12:42:16;;;;;;;19.70;17.70;;;21.50;1.00;;;;;;5078372;28;20493;-42
2022/09/29 12:45:19;;;;;;;20.45;18.30;;;21.30;1.00;;;;;;5088711;28;20518;-43
2022/09/29 12:48:07;;;;;;;20.50;18.27;;;21.20;1.00;;;;;;5081184;28;20036;-44
2022/09/29 12:50:45;;;;;;;25.38;19.05;;;21.20;1.00;;;;;;5091138;28;20043;-48
2022/09/29 12:53:40;;;;;;;21.65;18.45;;;21.40;1.00;;;;;;5090293;28;20034;-42
2022/09/29 12:56:22;;;;;;;24.50;18.55;;;21.30;1.00;;;;;;5069733;28;20556;-46
2022/09/29 12:58:53;;;;;;;19.95;16.88;;;21.20;1.00;;;;;;5090568;28;20420;-46
2022/09/29 13:01:42;;;;;;;21.63;17.27;;;21.30;1.00;;;;;;5090838;28;20024;-44
2022/09/29 13:04:17;;;;;;;21.67;17.98;;;21.20;1.00;;;;;;5084756;28;20024;-44
2022/09/29 13:07:04;;;;;;;18.55;16.63;;;21.10;1.00;;;;;;5073500;28;20032;-44
2022/09/29 13:09:57;;;;;;;21.40;17.70;;;21.00;1.00;;;;;;5073753;28;20524;-44
2022/09/29 13:12:28;;;;;;;21.40;17.98;;;21.40;1.00;;;;;;5081987;28;20024;-44
2022/09/29 13:15:00;;;;;;;20.75;18.50;;;21.30;1.00;;;;;;5091610;28;20113;-43
2022/09/29 13:17:54;;;;;;;19.25;17.17;;;21.30;1.00;;;;;;5089294;28;20032;-45
2022/09/29 13:20:42;;;;;;;20.53;17.23;;;21.70;1.00;;;;;;5089225;28;20044;-44
2022/09/29 13:23:38;;;;;;;23.08;15.90;;;22.30;1.00;;;;;;5072265;28;20028;-44